PER weather

Perth International Airport
Perth, Western Australia, Australia

Public forecast

Using degrees Celsius for public forecast. Weather courtesy of forecast.io.

METAR (pilot weather report)

Retrieved 2018/12/15 06:00 UTC (30 minutes ago):

YPPH 150600Z 17012KT 9999 VCSH FEW130CB BKN135 BKN250 29/12 Q1001 INTER 0600/0900 VRB25G40KT 7000 TSRA SCT080 FEW120CB

TAF (pilot weather forecast)

Forecast is more than 6 hours old.

Retrieved 2018/12/14 18:33 UTC (12 hours ago):

TAF YPPH 141708Z 1418/1524 20010KT CAVOK FM142000 20007KT 9999 BKN012 FM150000 20007KT 9999 FEW015 FM150500 22016KT CAVOK FM151200 21012KT 9999 SCT015 PROB30 INTER 1418/1505 VRB25G40KT 7000 TSRA SCT080 FEW120CB